sensor_id;sensor_type;location;lat;lon;timestamp;P1;durP1;ratioP1;P2;durP2;ratioP2
76826;SDS011;65788;52.284;20.890;2023-07-31T00:01:41;3.50;;;2.70;;
76826;SDS011;65788;52.284;20.890;2023-07-31T00:04:07;4.50;;;3.10;;
76826;SDS011;65788;52.284;20.890;2023-07-31T00:06:34;3.70;;;3.00;;
76826;SDS011;65788;52.284;20.890;2023-07-31T00:09:01;4.50;;;3.10;;
76826;SDS011;65788;52.284;20.890;2023-07-31T00:11:28;4.10;;;3.40;;
76826;SDS011;65788;52.284;20.890;2023-07-31T00:13:55;5.10;;;3.50;;
76826;SDS011;65788;52.284;20.890;2023-07-31T00:16:21;5.50;;;3.20;;
76826;SDS011;65788;52.284;20.890;2023-07-31T00:18:48;3.90;;;3.20;;
76826;SDS011;65788;52.284;20.890;2023-07-31T00:21:14;4.60;;;3.40;;
76826;SDS011;65788;52.284;20.890;2023-07-31T00:23:41;4.30;;;2.90;;
76826;SDS011;65788;52.284;20.890;2023-07-31T00:26:08;4.30;;;3.40;;
76826;SDS011;65788;52.284;20.890;2023-07-31T00:28:34;4.40;;;3.00;;
76826;SDS011;65788;52.284;20.890;2023-07-31T00:31:01;4.50;;;3.40;;
76826;SDS011;65788;52.284;20.890;2023-07-31T00:35:57;3.90;;;3.20;;
76826;SDS011;65788;52.284;20.890;2023-07-31T00:38:24;4.10;;;2.90;;
76826;SDS011;65788;52.284;20.890;2023-07-31T00:40:50;3.80;;;3.00;;
76826;SDS011;65788;52.284;20.890;2023-07-31T00:43:17;4.10;;;3.10;;
76826;SDS011;65788;52.284;20.890;2023-07-31T00:45:43;4.50;;;3.20;;
76826;SDS011;65788;52.284;20.890;2023-07-31T00:48:10;4.40;;;3.20;;
76826;SDS011;65788;52.284;20.890;2023-07-31T00:50:38;4.30;;;3.00;;
76826;SDS011;65788;52.284;20.890;2023-07-31T00:53:05;3.70;;;3.00;;
76826;SDS011;65788;52.284;20.890;2023-07-31T00:55:32;3.60;;;3.00;;
76826;SDS011;65788;52.284;20.890;2023-07-31T00:57:59;4.00;;;3.00;;
76826;SDS011;65788;52.284;20.890;2023-07-31T01:00:26;3.10;;;2.60;;
76826;SDS011;65788;52.284;20.890;2023-07-31T01:02:52;4.70;;;3.30;;
76826;SDS011;65788;52.284;20.890;2023-07-31T01:05:21;6.00;;;3.20;;
76826;SDS011;65788;52.284;20.890;2023-07-31T01:08:05;3.60;;;2.70;;
76826;SDS011;65788;52.284;20.890;2023-07-31T01:10:46;6.40;;;2.80;;
76826;SDS011;65788;52.284;20.890;2023-07-31T01:13:17;3.40;;;2.90;;
76826;SDS011;65788;52.284;20.890;2023-07-31T01:15:44;3.60;;;2.70;;
76826;SDS011;65788;52.284;20.890;2023-07-31T01:18:11;3.30;;;2.70;;
76826;SDS011;65788;52.284;20.890;2023-07-31T01:20:38;3.80;;;3.00;;
76826;SDS011;65788;52.284;20.890;2023-07-31T01:26:11;3.20;;;2.60;;
76826;SDS011;65788;52.284;20.890;2023-07-31T01:31:23;4.10;;;2.70;;
76826;SDS011;65788;52.284;20.890;2023-07-31T01:33:53;3.90;;;2.60;;
76826;SDS011;65788;52.284;20.890;2023-07-31T01:36:21;4.10;;;2.90;;
76826;SDS011;65788;52.284;20.890;2023-07-31T01:38:48;3.80;;;3.00;;
76826;SDS011;65788;52.284;20.890;2023-07-31T01:41:16;4.30;;;2.90;;
76826;SDS011;65788;52.284;20.890;2023-07-31T01:43:44;3.40;;;2.70;;
76826;SDS011;65788;52.284;20.890;2023-07-31T01:46:14;3.50;;;2.60;;
76826;SDS011;65788;52.284;20.890;2023-07-31T01:48:40;3.70;;;2.90;;
76826;SDS011;65788;52.284;20.890;2023-07-31T01:51:07;3.90;;;2.40;;
76826;SDS011;65788;52.284;20.890;2023-07-31T01:53:33;4.00;;;2.40;;
76826;SDS011;65788;52.284;20.890;2023-07-31T01:56:00;3.20;;;2.50;;
76826;SDS011;65788;52.284;20.890;2023-07-31T01:58:27;4.30;;;2.70;;
76826;SDS011;65788;52.284;20.890;2023-07-31T02:00:53;3.30;;;2.60;;
76826;SDS011;65788;52.284;20.890;2023-07-31T02:03:20;4.30;;;2.80;;
76826;SDS011;65788;52.284;20.890;2023-07-31T02:05:47;3.40;;;2.60;;
76826;SDS011;65788;52.284;20.890;2023-07-31T02:08:15;2.60;;;2.10;;
76826;SDS011;65788;52.284;20.890;2023-07-31T02:10:42;3.50;;;2.60;;
76826;SDS011;65788;52.284;20.890;2023-07-31T02:13:09;4.00;;;2.70;;
76826;SDS011;65788;52.284;20.890;2023-07-31T02:15:36;4.00;;;2.50;;
76826;SDS011;65788;52.284;20.890;2023-07-31T02:18:03;3.50;;;2.60;;
76826;SDS011;65788;52.284;20.890;2023-07-31T02:20:32;3.00;;;2.30;;
76826;SDS011;65788;52.284;20.890;2023-07-31T02:23:00;3.20;;;2.30;;
76826;SDS011;65788;52.284;20.890;2023-07-31T02:25:26;3.70;;;2.50;;
76826;SDS011;65788;52.284;20.890;2023-07-31T02:27:53;3.50;;;2.30;;
76826;SDS011;65788;52.284;20.890;2023-07-31T02:30:20;3.10;;;2.50;;
76826;SDS011;65788;52.284;20.890;2023-07-31T02:32:46;3.20;;;2.60;;
76826;SDS011;65788;52.284;20.890;2023-07-31T02:35:13;3.20;;;2.40;;
76826;SDS011;65788;52.284;20.890;2023-07-31T02:37:42;3.80;;;2.40;;
76826;SDS011;65788;52.284;20.890;2023-07-31T02:40:09;3.70;;;2.60;;
76826;SDS011;65788;52.284;20.890;2023-07-31T02:42:36;4.00;;;2.30;;
76826;SDS011;65788;52.284;20.890;2023-07-31T02:45:03;3.30;;;2.40;;
76826;SDS011;65788;52.284;20.890;2023-07-31T02:47:30;3.50;;;2.70;;
76826;SDS011;65788;52.284;20.890;2023-07-31T02:49:56;3.00;;;2.40;;
76826;SDS011;65788;52.284;20.890;2023-07-31T02:52:24;3.00;;;2.30;;
76826;SDS011;65788;52.284;20.890;2023-07-31T02:54:50;3.60;;;2.50;;
76826;SDS011;65788;52.284;20.890;2023-07-31T02:57:17;3.70;;;2.70;;
76826;SDS011;65788;52.284;20.890;2023-07-31T02:59:44;3.30;;;2.20;;
76826;SDS011;65788;52.284;20.890;2023-07-31T03:02:10;3.50;;;2.20;;
76826;SDS011;65788;52.284;20.890;2023-07-31T03:04:38;3.50;;;2.50;;
76826;SDS011;65788;52.284;20.890;2023-07-31T03:07:05;5.50;;;2.30;;
76826;SDS011;65788;52.284;20.890;2023-07-31T03:09:32;4.10;;;2.40;;
76826;SDS011;65788;52.284;20.890;2023-07-31T03:11:58;3.50;;;2.30;;
76826;SDS011;65788;52.284;20.890;2023-07-31T03:14:25;3.00;;;2.20;;
76826;SDS011;65788;52.284;20.890;2023-07-31T03:16:55;3.30;;;2.10;;
76826;SDS011;65788;52.284;20.890;2023-07-31T03:19:21;3.60;;;2.20;;
76826;SDS011;65788;52.284;20.890;2023-07-31T03:21:48;4.00;;;2.50;;
76826;SDS011;65788;52.284;20.890;2023-07-31T03:24:14;3.20;;;2.40;;
76826;SDS011;65788;52.284;20.890;2023-07-31T03:26:41;4.10;;;2.30;;
76826;SDS011;65788;52.284;20.890;2023-07-31T03:29:08;3.10;;;2.10;;
76826;SDS011;65788;52.284;20.890;2023-07-31T03:31:35;2.90;;;2.00;;
76826;SDS011;65788;52.284;20.890;2023-07-31T03:34:01;3.40;;;2.10;;
76826;SDS011;65788;52.284;20.890;2023-07-31T03:36:28;5.00;;;2.40;;
76826;SDS011;65788;52.284;20.890;2023-07-31T03:38:54;3.10;;;2.20;;
76826;SDS011;65788;52.284;20.890;2023-07-31T03:41:21;3.00;;;2.10;;
76826;SDS011;65788;52.284;20.890;2023-07-31T03:43:49;3.90;;;2.20;;
76826;SDS011;65788;52.284;20.890;2023-07-31T03:46:22;3.80;;;2.50;;
76826;SDS011;65788;52.284;20.890;2023-07-31T03:48:50;4.10;;;2.20;;
76826;SDS011;65788;52.284;20.890;2023-07-31T03:51:17;3.40;;;2.20;;
76826;SDS011;65788;52.284;20.890;2023-07-31T03:53:44;3.30;;;2.20;;
76826;SDS011;65788;52.284;20.890;2023-07-31T03:56:11;3.10;;;2.00;;
76826;SDS011;65788;52.284;20.890;2023-07-31T03:58:38;3.40;;;2.30;;
76826;SDS011;65788;52.284;20.890;2023-07-31T04:01:04;3.70;;;2.30;;
76826;SDS011;65788;52.284;20.890;2023-07-31T04:03:31;3.50;;;2.00;;
76826;SDS011;65788;52.284;20.890;2023-07-31T04:05:58;3.70;;;2.30;;
76826;SDS011;65788;52.284;20.890;2023-07-31T04:08:24;3.60;;;2.20;;
76826;SDS011;65788;52.284;20.890;2023-07-31T04:10:51;3.00;;;2.20;;
76826;SDS011;65788;52.284;20.890;2023-07-31T04:13:17;3.20;;;2.20;;
76826;SDS011;65788;52.284;20.890;2023-07-31T04:15:47;3.00;;;1.90;;
76826;SDS011;65788;52.284;20.890;2023-07-31T04:18:17;3.30;;;2.00;;
76826;SDS011;65788;52.284;20.890;2023-07-31T04:20:44;3.80;;;2.40;;
76826;SDS011;65788;52.284;20.890;2023-07-31T04:23:11;2.80;;;1.90;;
76826;SDS011;65788;52.284;20.890;2023-07-31T04:25:37;2.90;;;2.00;;
76826;SDS011;65788;52.284;20.890;2023-07-31T04:28:04;3.30;;;2.10;;
76826;SDS011;65788;52.284;20.890;2023-07-31T04:30:31;3.40;;;2.30;;
76826;SDS011;65788;52.284;20.890;2023-07-31T04:32:58;3.10;;;2.20;;
76826;SDS011;65788;52.284;20.890;2023-07-31T04:35:24;3.30;;;2.10;;
76826;SDS011;65788;52.284;20.890;2023-07-31T04:37:51;3.50;;;2.40;;
76826;SDS011;65788;52.284;20.890;2023-07-31T04:40:17;5.40;;;2.30;;
76826;SDS011;65788;52.284;20.890;2023-07-31T04:42:44;3.30;;;2.20;;
76826;SDS011;65788;52.284;20.890;2023-07-31T04:45:11;2.90;;;2.10;;
76826;SDS011;65788;52.284;20.890;2023-07-31T04:47:37;3.20;;;2.30;;
76826;SDS011;65788;52.284;20.890;2023-07-31T04:50:04;3.10;;;2.20;;
76826;SDS011;65788;52.284;20.890;2023-07-31T04:52:32;3.30;;;2.30;;
76826;SDS011;65788;52.284;20.890;2023-07-31T04:54:58;2.80;;;2.00;;
76826;SDS011;65788;52.284;20.890;2023-07-31T04:57:25;5.70;;;2.10;;
76826;SDS011;65788;52.284;20.890;2023-07-31T04:59:52;4.80;;;2.30;;
76826;SDS011;65788;52.284;20.890;2023-07-31T05:02:18;2.80;;;1.90;;
76826;SDS011;65788;52.284;20.890;2023-07-31T05:04:45;3.50;;;2.30;;
76826;SDS011;65788;52.284;20.890;2023-07-31T05:07:12;4.30;;;2.30;;
76826;SDS011;65788;52.284;20.890;2023-07-31T05:09:38;3.70;;;2.10;;
76826;SDS011;65788;52.284;20.890;2023-07-31T05:12:06;3.20;;;2.20;;
76826;SDS011;65788;52.284;20.890;2023-07-31T05:14:33;3.50;;;2.10;;
76826;SDS011;65788;52.284;20.890;2023-07-31T05:16:59;3.60;;;2.10;;
76826;SDS011;65788;52.284;20.890;2023-07-31T05:19:26;3.90;;;2.10;;
76826;SDS011;65788;52.284;20.890;2023-07-31T05:21:53;3.20;;;2.10;;
76826;SDS011;65788;52.284;20.890;2023-07-31T05:24:19;3.00;;;2.10;;
76826;SDS011;65788;52.284;20.890;2023-07-31T05:26:46;3.10;;;2.20;;
76826;SDS011;65788;52.284;20.890;2023-07-31T05:29:12;2.60;;;1.80;;
76826;SDS011;65788;52.284;20.890;2023-07-31T05:31:39;3.40;;;2.30;;
76826;SDS011;65788;52.284;20.890;2023-07-31T05:34:06;3.30;;;2.30;;
76826;SDS011;65788;52.284;20.890;2023-07-31T05:36:32;3.50;;;2.00;;
76826;SDS011;65788;52.284;20.890;2023-07-31T05:38:59;2.90;;;2.00;;
76826;SDS011;65788;52.284;20.890;2023-07-31T05:41:26;3.30;;;2.30;;
76826;SDS011;65788;52.284;20.890;2023-07-31T05:43:52;3.50;;;2.10;;
76826;SDS011;65788;52.284;20.890;2023-07-31T05:46:19;3.40;;;2.10;;
76826;SDS011;65788;52.284;20.890;2023-07-31T05:48:45;4.30;;;2.60;;
76826;SDS011;65788;52.284;20.890;2023-07-31T05:51:12;2.90;;;1.90;;
76826;SDS011;65788;52.284;20.890;2023-07-31T05:53:39;4.60;;;2.40;;
76826;SDS011;65788;52.284;20.890;2023-07-31T05:56:07;3.00;;;2.10;;
76826;SDS011;65788;52.284;20.890;2023-07-31T05:58:33;3.00;;;2.20;;
76826;SDS011;65788;52.284;20.890;2023-07-31T06:01:00;3.30;;;2.00;;
76826;SDS011;65788;52.284;20.890;2023-07-31T06:03:26;2.80;;;2.00;;
76826;SDS011;65788;52.284;20.890;2023-07-31T06:05:53;3.30;;;2.10;;
76826;SDS011;65788;52.284;20.890;2023-07-31T06:08:20;4.40;;;2.40;;
76826;SDS011;65788;52.284;20.890;2023-07-31T06:10:46;3.20;;;2.10;;
76826;SDS011;65788;52.284;20.890;2023-07-31T06:13:13;3.60;;;2.60;;
76826;SDS011;65788;52.284;20.890;2023-07-31T06:15:40;3.00;;;2.00;;
76826;SDS011;65788;52.284;20.890;2023-07-31T06:18:06;4.20;;;2.30;;
76826;SDS011;65788;52.284;20.890;2023-07-31T06:20:34;3.30;;;2.20;;
76826;SDS011;65788;52.284;20.890;2023-07-31T06:23:01;4.60;;;2.10;;
76826;SDS011;65788;52.284;20.890;2023-07-31T06:25:27;2.90;;;2.00;;
76826;SDS011;65788;52.284;20.890;2023-07-31T06:27:54;3.40;;;2.10;;
76826;SDS011;65788;52.284;20.890;2023-07-31T06:30:21;2.70;;;1.80;;
76826;SDS011;65788;52.284;20.890;2023-07-31T06:32:48;3.70;;;2.30;;
76826;SDS011;65788;52.284;20.890;2023-07-31T06:35:14;3.10;;;2.10;;
76826;SDS011;65788;52.284;20.890;2023-07-31T06:37:41;4.00;;;2.30;;
76826;SDS011;65788;52.284;20.890;2023-07-31T06:40:10;3.10;;;2.30;;
76826;SDS011;65788;52.284;20.890;2023-07-31T06:42:37;2.80;;;1.80;;
76826;SDS011;65788;52.284;20.890;2023-07-31T06:45:04;2.70;;;2.00;;
76826;SDS011;65788;52.284;20.890;2023-07-31T06:47:32;3.00;;;1.80;;
76826;SDS011;65788;52.284;20.890;2023-07-31T06:49:59;3.70;;;2.20;;
76826;SDS011;65788;52.284;20.890;2023-07-31T06:52:25;4.90;;;2.00;;
76826;SDS011;65788;52.284;20.890;2023-07-31T06:55:15;3.70;;;2.20;;
76826;SDS011;65788;52.284;20.890;2023-07-31T06:57:45;3.10;;;2.00;;
76826;SDS011;65788;52.284;20.890;2023-07-31T07:00:13;4.00;;;2.20;;
76826;SDS011;65788;52.284;20.890;2023-07-31T07:02:40;4.70;;;2.10;;
76826;SDS011;65788;52.284;20.890;2023-07-31T07:05:07;3.90;;;2.10;;
76826;SDS011;65788;52.284;20.890;2023-07-31T07:07:35;3.40;;;2.40;;
76826;SDS011;65788;52.284;20.890;2023-07-31T07:10:02;2.90;;;2.10;;
76826;SDS011;65788;52.284;20.890;2023-07-31T07:12:30;3.80;;;2.20;;
76826;SDS011;65788;52.284;20.890;2023-07-31T07:14:58;5.30;;;2.20;;
76826;SDS011;65788;52.284;20.890;2023-07-31T07:17:28;4.00;;;2.20;;
76826;SDS011;65788;52.284;20.890;2023-07-31T07:19:59;3.70;;;2.30;;
76826;SDS011;65788;52.284;20.890;2023-07-31T07:22:27;4.10;;;2.30;;
76826;SDS011;65788;52.284;20.890;2023-07-31T07:24:54;3.40;;;2.20;;
76826;SDS011;65788;52.284;20.890;2023-07-31T07:27:21;4.40;;;1.90;;
76826;SDS011;65788;52.284;20.890;2023-07-31T07:29:49;3.40;;;1.80;;
76826;SDS011;65788;52.284;20.890;2023-07-31T07:32:17;3.70;;;2.30;;
76826;SDS011;65788;52.284;20.890;2023-07-31T07:34:44;5.20;;;2.50;;
76826;SDS011;65788;52.284;20.890;2023-07-31T07:37:11;3.80;;;2.10;;
76826;SDS011;65788;52.284;20.890;2023-07-31T07:39:38;3.80;;;2.40;;
76826;SDS011;65788;52.284;20.890;2023-07-31T07:42:04;3.60;;;2.20;;
76826;SDS011;65788;52.284;20.890;2023-07-31T07:44:31;3.70;;;2.40;;
76826;SDS011;65788;52.284;20.890;2023-07-31T07:46:58;3.20;;;1.90;;
76826;SDS011;65788;52.284;20.890;2023-07-31T07:49:24;5.90;;;2.80;;
76826;SDS011;65788;52.284;20.890;2023-07-31T07:51:51;5.40;;;2.40;;
76826;SDS011;65788;52.284;20.890;2023-07-31T07:54:18;6.50;;;2.40;;
76826;SDS011;65788;52.284;20.890;2023-07-31T07:56:45;3.70;;;2.30;;
76826;SDS011;65788;52.284;20.890;2023-07-31T07:59:12;3.20;;;2.20;;
76826;SDS011;65788;52.284;20.890;2023-07-31T08:01:38;4.30;;;2.10;;
76826;SDS011;65788;52.284;20.890;2023-07-31T08:04:05;5.80;;;2.40;;
76826;SDS011;65788;52.284;20.890;2023-07-31T08:06:32;6.40;;;2.70;;
76826;SDS011;65788;52.284;20.890;2023-07-31T08:08:58;3.70;;;2.20;;
76826;SDS011;65788;52.284;20.890;2023-07-31T08:11:25;3.60;;;2.30;;
76826;SDS011;65788;52.284;20.890;2023-07-31T08:13:52;4.10;;;2.20;;
76826;SDS011;65788;52.284;20.890;2023-07-31T08:16:19;4.70;;;2.10;;
76826;SDS011;65788;52.284;20.890;2023-07-31T08:18:45;4.50;;;2.60;;
76826;SDS011;65788;52.284;20.890;2023-07-31T08:21:12;4.50;;;2.30;;
76826;SDS011;65788;52.284;20.890;2023-07-31T08:23:38;4.60;;;2.20;;
76826;SDS011;65788;52.284;20.890;2023-07-31T08:26:05;5.00;;;2.20;;
76826;SDS011;65788;52.284;20.890;2023-07-31T08:28:32;5.60;;;2.50;;
76826;SDS011;65788;52.284;20.890;2023-07-31T08:30:59;7.50;;;2.60;;
76826;SDS011;65788;52.284;20.890;2023-07-31T08:33:25;6.80;;;2.60;;
76826;SDS011;65788;52.284;20.890;2023-07-31T08:35:52;4.20;;;2.20;;
76826;SDS011;65788;52.284;20.890;2023-07-31T08:38:19;6.00;;;2.00;;
76826;SDS011;65788;52.284;20.890;2023-07-31T08:40:46;4.80;;;2.00;;
76826;SDS011;65788;52.284;20.890;2023-07-31T08:43:12;5.30;;;2.30;;
76826;SDS011;65788;52.284;20.890;2023-07-31T08:45:39;5.20;;;2.40;;
76826;SDS011;65788;52.284;20.890;2023-07-31T08:48:08;5.50;;;1.90;;
76826;SDS011;65788;52.284;20.890;2023-07-31T08:50:37;5.20;;;2.30;;
76826;SDS011;65788;52.284;20.890;2023-07-31T08:53:04;4.80;;;2.50;;
76826;SDS011;65788;52.284;20.890;2023-07-31T08:55:31;4.80;;;2.10;;
76826;SDS011;65788;52.284;20.890;2023-07-31T08:57:59;5.60;;;2.40;;
76826;SDS011;65788;52.284;20.890;2023-07-31T09:00:28;4.70;;;2.20;;
76826;SDS011;65788;52.284;20.890;2023-07-31T09:02:57;5.20;;;2.00;;
76826;SDS011;65788;52.284;20.890;2023-07-31T09:05:31;3.60;;;1.90;;
76826;SDS011;65788;52.284;20.890;2023-07-31T09:07:58;2.90;;;1.60;;
76826;SDS011;65788;52.284;20.890;2023-07-31T09:10:24;5.20;;;2.00;;
76826;SDS011;65788;52.284;20.890;2023-07-31T09:12:51;4.50;;;2.10;;
76826;SDS011;65788;52.284;20.890;2023-07-31T09:15:19;4.50;;;1.80;;
76826;SDS011;65788;52.284;20.890;2023-07-31T09:17:47;4.50;;;1.70;;
76826;SDS011;65788;52.284;20.890;2023-07-31T09:22:41;3.60;;;2.00;;
76826;SDS011;65788;52.284;20.890;2023-07-31T09:27:58;4.00;;;1.60;;
76826;SDS011;65788;52.284;20.890;2023-07-31T09:30:26;3.90;;;1.60;;
76826;SDS011;65788;52.284;20.890;2023-07-31T09:33:00;3.40;;;1.70;;
76826;SDS011;65788;52.284;20.890;2023-07-31T09:35:30;2.90;;;1.50;;
76826;SDS011;65788;52.284;20.890;2023-07-31T09:37:59;2.40;;;1.30;;
76826;SDS011;65788;52.284;20.890;2023-07-31T09:40:31;3.60;;;1.50;;
76826;SDS011;65788;52.284;20.890;2023-07-31T09:43:01;2.40;;;1.40;;
76826;SDS011;65788;52.284;20.890;2023-07-31T09:45:34;3.10;;;1.60;;
76826;SDS011;65788;52.284;20.890;2023-07-31T09:48:08;3.00;;;1.40;;
76826;SDS011;65788;52.284;20.890;2023-07-31T09:50:38;3.50;;;1.60;;
76826;SDS011;65788;52.284;20.890;2023-07-31T09:53:06;3.30;;;1.70;;
76826;SDS011;65788;52.284;20.890;2023-07-31T09:55:33;2.90;;;1.50;;
76826;SDS011;65788;52.284;20.890;2023-07-31T09:58:05;2.90;;;1.50;;
76826;SDS011;65788;52.284;20.890;2023-07-31T10:00:33;3.90;;;1.40;;
76826;SDS011;65788;52.284;20.890;2023-07-31T10:03:02;3.40;;;1.70;;
76826;SDS011;65788;52.284;20.890;2023-07-31T10:05:35;2.40;;;1.40;;
76826;SDS011;65788;52.284;20.890;2023-07-31T10:08:17;2.50;;;1.50;;
76826;SDS011;65788;52.284;20.890;2023-07-31T10:10:46;2.20;;;1.10;;
76826;SDS011;65788;52.284;20.890;2023-07-31T10:13:13;2.50;;;1.30;;
76826;SDS011;65788;52.284;20.890;2023-07-31T10:15:40;2.30;;;1.20;;
76826;SDS011;65788;52.284;20.890;2023-07-31T10:18:09;3.30;;;1.50;;
76826;SDS011;65788;52.284;20.890;2023-07-31T10:20:37;2.30;;;1.30;;
76826;SDS011;65788;52.284;20.890;2023-07-31T10:23:04;2.00;;;1.10;;
76826;SDS011;65788;52.284;20.890;2023-07-31T10:25:32;2.80;;;1.40;;
76826;SDS011;65788;52.284;20.890;2023-07-31T10:28:00;2.70;;;1.30;;
76826;SDS011;65788;52.284;20.890;2023-07-31T10:30:28;3.00;;;1.40;;
76826;SDS011;65788;52.284;20.890;2023-07-31T10:32:58;3.30;;;1.40;;
76826;SDS011;65788;52.284;20.890;2023-07-31T10:35:26;2.40;;;1.20;;
76826;SDS011;65788;52.284;20.890;2023-07-31T10:37:54;3.00;;;1.20;;
76826;SDS011;65788;52.284;20.890;2023-07-31T10:40:25;2.60;;;1.20;;
76826;SDS011;65788;52.284;20.890;2023-07-31T10:42:53;2.20;;;1.30;;
76826;SDS011;65788;52.284;20.890;2023-07-31T10:45:25;4.20;;;1.40;;
76826;SDS011;65788;52.284;20.890;2023-07-31T10:48:04;2.20;;;1.20;;
76826;SDS011;65788;52.284;20.890;2023-07-31T10:50:49;1.80;;;1.20;;
76826;SDS011;65788;52.284;20.890;2023-07-31T10:55:58;2.00;;;1.20;;
76826;SDS011;65788;52.284;20.890;2023-07-31T10:58:26;3.50;;;1.30;;
76826;SDS011;65788;52.284;20.890;2023-07-31T11:00:57;3.70;;;1.40;;
76826;SDS011;65788;52.284;20.890;2023-07-31T11:06:09;3.40;;;1.30;;
76826;SDS011;65788;52.284;20.890;2023-07-31T11:08:41;3.60;;;1.30;;
76826;SDS011;65788;52.284;20.890;2023-07-31T11:11:14;2.20;;;1.30;;
76826;SDS011;65788;52.284;20.890;2023-07-31T11:13:43;2.70;;;1.20;;
76826;SDS011;65788;52.284;20.890;2023-07-31T11:16:19;3.30;;;1.30;;
76826;SDS011;65788;52.284;20.890;2023-07-31T11:18:47;2.70;;;1.30;;
76826;SDS011;65788;52.284;20.890;2023-07-31T11:21:16;2.70;;;1.20;;
76826;SDS011;65788;52.284;20.890;2023-07-31T11:23:48;3.10;;;1.10;;
76826;SDS011;65788;52.284;20.890;2023-07-31T11:26:17;2.50;;;1.20;;
76826;SDS011;65788;52.284;20.890;2023-07-31T11:28:48;2.80;;;1.30;;
76826;SDS011;65788;52.284;20.890;2023-07-31T11:31:15;2.20;;;1.00;;
76826;SDS011;65788;52.284;20.890;2023-07-31T11:33:43;2.40;;;1.10;;
76826;SDS011;65788;52.284;20.890;2023-07-31T11:36:16;3.30;;;1.10;;
76826;SDS011;65788;52.284;20.890;2023-07-31T11:38:44;2.70;;;1.30;;
76826;SDS011;65788;52.284;20.890;2023-07-31T11:41:13;2.50;;;1.10;;
76826;SDS011;65788;52.284;20.890;2023-07-31T11:43:42;2.20;;;1.00;;
76826;SDS011;65788;52.284;20.890;2023-07-31T11:46:09;2.40;;;1.20;;
76826;SDS011;65788;52.284;20.890;2023-07-31T11:48:36;2.70;;;1.30;;
76826;SDS011;65788;52.284;20.890;2023-07-31T11:51:04;2.00;;;1.00;;
76826;SDS011;65788;52.284;20.890;2023-07-31T11:53:36;3.10;;;1.20;;
76826;SDS011;65788;52.284;20.890;2023-07-31T11:56:07;2.00;;;1.10;;
76826;SDS011;65788;52.284;20.890;2023-07-31T11:58:37;2.00;;;1.10;;
76826;SDS011;65788;52.284;20.890;2023-07-31T12:01:05;1.90;;;1.20;;
76826;SDS011;65788;52.284;20.890;2023-07-31T12:03:33;3.00;;;1.20;;
76826;SDS011;65788;52.284;20.890;2023-07-31T12:06:00;3.10;;;1.10;;
76826;SDS011;65788;52.284;20.890;2023-07-31T12:08:29;1.90;;;1.10;;
76826;SDS011;65788;52.284;20.890;2023-07-31T12:11:01;2.00;;;1.10;;
76826;SDS011;65788;52.284;20.890;2023-07-31T12:13:30;2.20;;;1.20;;
76826;SDS011;65788;52.284;20.890;2023-07-31T12:18:29;3.40;;;1.10;;
76826;SDS011;65788;52.284;20.890;2023-07-31T12:21:00;2.40;;;1.30;;
76826;SDS011;65788;52.284;20.890;2023-07-31T12:23:29;2.40;;;1.10;;
76826;SDS011;65788;52.284;20.890;2023-07-31T12:26:01;2.60;;;1.30;;
76826;SDS011;65788;52.284;20.890;2023-07-31T12:29:05;2.00;;;0.90;;
76826;SDS011;65788;52.284;20.890;2023-07-31T12:31:33;3.30;;;1.10;;
76826;SDS011;65788;52.284;20.890;2023-07-31T12:34:00;4.30;;;1.20;;
76826;SDS011;65788;52.284;20.890;2023-07-31T12:36:29;2.50;;;1.10;;
76826;SDS011;65788;52.284;20.890;2023-07-31T12:38:58;2.20;;;1.20;;
76826;SDS011;65788;52.284;20.890;2023-07-31T12:41:26;1.90;;;1.00;;
76826;SDS011;65788;52.284;20.890;2023-07-31T12:43:52;2.30;;;1.00;;
76826;SDS011;65788;52.284;20.890;2023-07-31T12:46:19;3.50;;;1.10;;
76826;SDS011;65788;52.284;20.890;2023-07-31T12:48:46;1.70;;;1.00;;
76826;SDS011;65788;52.284;20.890;2023-07-31T12:51:13;3.40;;;1.10;;
76826;SDS011;65788;52.284;20.890;2023-07-31T12:53:40;2.50;;;1.00;;
76826;SDS011;65788;52.284;20.890;2023-07-31T12:56:07;2.10;;;1.00;;
76826;SDS011;65788;52.284;20.890;2023-07-31T12:58:33;1.50;;;0.90;;
76826;SDS011;65788;52.284;20.890;2023-07-31T13:01:00;1.90;;;1.00;;
76826;SDS011;65788;52.284;20.890;2023-07-31T13:03:28;2.10;;;1.20;;
76826;SDS011;65788;52.284;20.890;2023-07-31T13:05:55;2.30;;;1.10;;
76826;SDS011;65788;52.284;20.890;2023-07-31T13:08:22;1.80;;;0.90;;
76826;SDS011;65788;52.284;20.890;2023-07-31T13:10:48;2.20;;;1.00;;
76826;SDS011;65788;52.284;20.890;2023-07-31T13:13:15;2.60;;;1.10;;
76826;SDS011;65788;52.284;20.890;2023-07-31T13:15:43;2.60;;;1.20;;
76826;SDS011;65788;52.284;20.890;2023-07-31T13:18:10;2.60;;;1.20;;
76826;SDS011;65788;52.284;20.890;2023-07-31T13:20:37;2.70;;;1.30;;
76826;SDS011;65788;52.284;20.890;2023-07-31T13:23:04;2.20;;;1.20;;
76826;SDS011;65788;52.284;20.890;2023-07-31T13:25:34;2.70;;;1.20;;
76826;SDS011;65788;52.284;20.890;2023-07-31T13:28:01;3.50;;;1.10;;
76826;SDS011;65788;52.284;20.890;2023-07-31T13:30:30;1.90;;;1.10;;
76826;SDS011;65788;52.284;20.890;2023-07-31T13:32:57;3.30;;;1.20;;
76826;SDS011;65788;52.284;20.890;2023-07-31T13:35:24;2.80;;;1.20;;
76826;SDS011;65788;52.284;20.890;2023-07-31T13:37:51;2.50;;;1.30;;
76826;SDS011;65788;52.284;20.890;2023-07-31T13:40:17;2.40;;;1.20;;
76826;SDS011;65788;52.284;20.890;2023-07-31T13:42:44;2.90;;;1.10;;
76826;SDS011;65788;52.284;20.890;2023-07-31T13:45:11;2.80;;;1.00;;
76826;SDS011;65788;52.284;20.890;2023-07-31T13:47:42;2.80;;;1.50;;
76826;SDS011;65788;52.284;20.890;2023-07-31T13:50:09;2.60;;;1.60;;
76826;SDS011;65788;52.284;20.890;2023-07-31T13:52:36;1.80;;;1.00;;
76826;SDS011;65788;52.284;20.890;2023-07-31T13:55:02;2.60;;;1.00;;
76826;SDS011;65788;52.284;20.890;2023-07-31T13:57:29;3.20;;;1.40;;
76826;SDS011;65788;52.284;20.890;2023-07-31T13:59:56;3.60;;;1.20;;
76826;SDS011;65788;52.284;20.890;2023-07-31T14:02:23;3.70;;;1.40;;
76826;SDS011;65788;52.284;20.890;2023-07-31T14:04:49;2.30;;;1.20;;
76826;SDS011;65788;52.284;20.890;2023-07-31T14:07:16;3.70;;;1.50;;
76826;SDS011;65788;52.284;20.890;2023-07-31T14:09:44;4.10;;;1.50;;
76826;SDS011;65788;52.284;20.890;2023-07-31T14:12:10;2.30;;;1.00;;
76826;SDS011;65788;52.284;20.890;2023-07-31T14:14:37;3.70;;;1.40;;
76826;SDS011;65788;52.284;20.890;2023-07-31T14:17:04;2.90;;;1.40;;
76826;SDS011;65788;52.284;20.890;2023-07-31T14:19:31;3.20;;;1.20;;
76826;SDS011;65788;52.284;20.890;2023-07-31T14:21:58;2.30;;;1.10;;
76826;SDS011;65788;52.284;20.890;2023-07-31T14:24:26;2.70;;;1.00;;
76826;SDS011;65788;52.284;20.890;2023-07-31T14:26:53;5.20;;;1.30;;
76826;SDS011;65788;52.284;20.890;2023-07-31T14:29:19;3.20;;;1.50;;
76826;SDS011;65788;52.284;20.890;2023-07-31T14:31:46;2.50;;;1.10;;
76826;SDS011;65788;52.284;20.890;2023-07-31T14:34:15;2.60;;;1.10;;
76826;SDS011;65788;52.284;20.890;2023-07-31T14:36:45;2.10;;;1.10;;
76826;SDS011;65788;52.284;20.890;2023-07-31T14:39:12;4.30;;;1.30;;
76826;SDS011;65788;52.284;20.890;2023-07-31T14:41:39;2.20;;;1.10;;
76826;SDS011;65788;52.284;20.890;2023-07-31T14:44:11;2.90;;;1.40;;
76826;SDS011;65788;52.284;20.890;2023-07-31T14:46:37;2.40;;;1.00;;
76826;SDS011;65788;52.284;20.890;2023-07-31T14:49:04;4.30;;;1.10;;
76826;SDS011;65788;52.284;20.890;2023-07-31T14:51:31;1.90;;;1.10;;
76826;SDS011;65788;52.284;20.890;2023-07-31T14:53:58;2.50;;;1.10;;
76826;SDS011;65788;52.284;20.890;2023-07-31T14:56:25;3.30;;;1.20;;
76826;SDS011;65788;52.284;20.890;2023-07-31T14:58:55;2.60;;;1.10;;